Peace River, Peace River Airport (CYPE)

NamePeace River Airport
CityPeace River
CountryCanada
ICAOCYPE
IATAYPE
Altitude571 m
CoordinatesGoogle Map
Live Air TrafficLiveATC.net
METARCYPE 221700Z 23006KT 15SM FEW090 03/M03 A2964 RMK AC1 SLP064
2019-11-22 17:00:00 Wind: Southwest (230°) 3.09 m/s - Visibility: 24140.1 m - Temperature: 3 °C - Dew point: -3 °C - Humidity: 65.1% - Pressure: 1003.73 hPa
Statistics

The table below shows the detailed information of all flights to/from Peace River, Peace River Airport (CYPE).